Terminal Aerodrome Forecast
Issued by NWS Wilmington, NC

Current Version | Previous Version | Graphics & Text | Print | Product List | Glossary Off
Versions: 1 2 3 4 5 6 7 8 9 10 11 12

000
FTUS42 KILM 011700
TAFILM
TAF
KILM 011723Z 0118/0218 19008KT P6SM FEW040 SCT120
     FM012300 16011KT P6SM VCSH SCT030 BKN120
     FM020600 21012G22KT P6SM -RA SCT025 OVC050
      TEMPO 0208/0212 4SM -RA BR SCT015 OVC025
     FM021500 24022G30KT P6SM -RA BKN015 OVC025=

USA.gov is the U.S. government's official web portal to all federal, state and local government web resources and services.